sensor_id;sensor_type;location;lat;lon;timestamp;temperature;humidity
19037;DHT22;9651;49.138;8.900;2023-04-15T00:01:52;5.60;99.90
19037;DHT22;9651;49.138;8.900;2023-04-15T00:05:54;5.50;99.90
19037;DHT22;9651;49.138;8.900;2023-04-15T00:09:56;5.40;99.90
19037;DHT22;9651;49.138;8.900;2023-04-15T00:13:58;5.50;99.90
19037;DHT22;9651;49.138;8.900;2023-04-15T00:18:02;5.50;99.90
19037;DHT22;9651;49.138;8.900;2023-04-15T00:22:04;5.60;99.90
19037;DHT22;9651;49.138;8.900;2023-04-15T00:26:06;5.60;99.90
19037;DHT22;9651;49.138;8.900;2023-04-15T00:30:09;5.60;99.90
19037;DHT22;9651;49.138;8.900;2023-04-15T00:34:13;5.50;99.90
19037;DHT22;9651;49.138;8.900;2023-04-15T00:38:17;5.50;99.90
19037;DHT22;9651;49.138;8.900;2023-04-15T00:42:19;5.40;99.90
19037;DHT22;9651;49.138;8.900;2023-04-15T00:46:22;5.40;99.90
19037;DHT22;9651;49.138;8.900;2023-04-15T00:50:26;5.30;99.90
19037;DHT22;9651;49.138;8.900;2023-04-15T00:54:27;5.30;99.90
19037;DHT22;9651;49.138;8.900;2023-04-15T00:58:29;5.10;99.90
19037;DHT22;9651;49.138;8.900;2023-04-15T01:02:33;5.00;99.90
19037;DHT22;9651;49.138;8.900;2023-04-15T01:06:37;4.80;99.90
19037;DHT22;9651;49.138;8.900;2023-04-15T01:10:39;4.80;99.90
19037;DHT22;9651;49.138;8.900;2023-04-15T01:14:41;4.80;99.90
19037;DHT22;9651;49.138;8.900;2023-04-15T01:18:43;4.70;99.90
19037;DHT22;9651;49.138;8.900;2023-04-15T01:22:47;4.60;99.90
19037;DHT22;9651;49.138;8.900;2023-04-15T01:26:50;4.40;99.90
19037;DHT22;9651;49.138;8.900;2023-04-15T01:31:04;4.50;99.90
19037;DHT22;9651;49.138;8.900;2023-04-15T01:35:10;4.40;99.90
19037;DHT22;9651;49.138;8.900;2023-04-15T01:39:12;4.50;99.90
19037;DHT22;9651;49.138;8.900;2023-04-15T01:43:16;4.60;99.90
19037;DHT22;9651;49.138;8.900;2023-04-15T01:47:18;4.70;99.90
19037;DHT22;9651;49.138;8.900;2023-04-15T01:51:21;4.70;99.90
19037;DHT22;9651;49.138;8.900;2023-04-15T01:55:23;4.70;99.90
19037;DHT22;9651;49.138;8.900;2023-04-15T01:59:27;4.70;99.90
19037;DHT22;9651;49.138;8.900;2023-04-15T02:03:29;4.60;99.90
19037;DHT22;9651;49.138;8.900;2023-04-15T02:07:31;4.50;99.90
19037;DHT22;9651;49.138;8.900;2023-04-15T02:11:33;4.30;99.90
19037;DHT22;9651;49.138;8.900;2023-04-15T02:15:39;4.30;99.90
19037;DHT22;9651;49.138;8.900;2023-04-15T02:19:41;4.20;99.90
19037;DHT22;9651;49.138;8.900;2023-04-15T02:23:43;4.10;99.90
19037;DHT22;9651;49.138;8.900;2023-04-15T02:27:47;4.10;99.90
19037;DHT22;9651;49.138;8.900;2023-04-15T02:31:52;4.20;99.90
19037;DHT22;9651;49.138;8.900;2023-04-15T02:35:54;4.10;99.90
19037;DHT22;9651;49.138;8.900;2023-04-15T02:39:56;3.90;99.90
19037;DHT22;9651;49.138;8.900;2023-04-15T02:43:58;4.00;99.90
19037;DHT22;9651;49.138;8.900;2023-04-15T02:48:04;4.10;99.90
19037;DHT22;9651;49.138;8.900;2023-04-15T02:52:06;4.20;99.90
19037;DHT22;9651;49.138;8.900;2023-04-15T02:56:08;4.20;99.90
19037;DHT22;9651;49.138;8.900;2023-04-15T03:00:12;4.20;99.90
19037;DHT22;9651;49.138;8.900;2023-04-15T03:04:18;4.20;99.90
19037;DHT22;9651;49.138;8.900;2023-04-15T03:08:19;4.20;99.90
19037;DHT22;9651;49.138;8.900;2023-04-15T03:12:22;4.10;99.90
19037;DHT22;9651;49.138;8.900;2023-04-15T03:16:27;4.10;99.90
19037;DHT22;9651;49.138;8.900;2023-04-15T03:20:30;4.00;99.90
19037;DHT22;9651;49.138;8.900;2023-04-15T03:24:32;4.00;99.90
19037;DHT22;9651;49.138;8.900;2023-04-15T03:28:34;3.80;99.90
19037;DHT22;9651;49.138;8.900;2023-04-15T03:32:36;3.70;99.90
19037;DHT22;9651;49.138;8.900;2023-04-15T03:36:41;3.80;99.90
19037;DHT22;9651;49.138;8.900;2023-04-15T03:40:45;3.80;99.90
19037;DHT22;9651;49.138;8.900;2023-04-15T03:44:47;3.90;99.90
19037;DHT22;9651;49.138;8.900;2023-04-15T03:48:49;3.90;99.90
19037;DHT22;9651;49.138;8.900;2023-04-15T03:52:52;3.80;99.90
19037;DHT22;9651;49.138;8.900;2023-04-15T03:56:54;3.80;99.90
19037;DHT22;9651;49.138;8.900;2023-04-15T04:00:56;3.80;99.90
19037;DHT22;9651;49.138;8.900;2023-04-15T04:04:58;3.90;99.90
19037;DHT22;9651;49.138;8.900;2023-04-15T04:09:01;3.90;99.90
19037;DHT22;9651;49.138;8.900;2023-04-15T04:13:03;3.80;99.90
19037;DHT22;9651;49.138;8.900;2023-04-15T04:17:05;3.70;99.90
19037;DHT22;9651;49.138;8.900;2023-04-15T04:21:07;3.70;99.90
19037;DHT22;9651;49.138;8.900;2023-04-15T04:25:10;3.70;99.90
19037;DHT22;9651;49.138;8.900;2023-04-15T04:29:12;3.60;99.90
19037;DHT22;9651;49.138;8.900;2023-04-15T04:33:14;3.60;99.90
19037;DHT22;9651;49.138;8.900;2023-04-15T04:37:16;3.60;99.90
19037;DHT22;9651;49.138;8.900;2023-04-15T04:41:19;3.40;99.90
19037;DHT22;9651;49.138;8.900;2023-04-15T04:45:21;3.30;99.90
19037;DHT22;9651;49.138;8.900;2023-04-15T04:49:23;3.20;99.90
19037;DHT22;9651;49.138;8.900;2023-04-15T04:53:25;3.20;99.90
19037;DHT22;9651;49.138;8.900;2023-04-15T04:57:29;3.20;99.90
19037;DHT22;9651;49.138;8.900;2023-04-15T05:01:30;3.20;99.90
19037;DHT22;9651;49.138;8.900;2023-04-15T05:05:32;3.20;99.90
19037;DHT22;9651;49.138;8.900;2023-04-15T05:09:35;3.20;99.90
19037;DHT22;9651;49.138;8.900;2023-04-15T05:13:38;3.30;99.90
19037;DHT22;9651;49.138;8.900;2023-04-15T05:17:40;3.30;99.90
19037;DHT22;9651;49.138;8.900;2023-04-15T05:21:42;3.30;99.90
19037;DHT22;9651;49.138;8.900;2023-04-15T05:25:44;3.20;99.90
19037;DHT22;9651;49.138;8.900;2023-04-15T05:29:47;3.20;99.90
19037;DHT22;9651;49.138;8.900;2023-04-15T05:33:49;3.40;99.90
19037;DHT22;9651;49.138;8.900;2023-04-15T05:37:51;3.60;99.90
19037;DHT22;9651;49.138;8.900;2023-04-15T05:41:53;3.90;99.90
19037;DHT22;9651;49.138;8.900;2023-04-15T05:45:56;4.30;99.90
19037;DHT22;9651;49.138;8.900;2023-04-15T05:49:58;4.70;99.90
19037;DHT22;9651;49.138;8.900;2023-04-15T05:54:00;5.10;99.90
19037;DHT22;9651;49.138;8.900;2023-04-15T05:58:02;5.40;99.90
19037;DHT22;9651;49.138;8.900;2023-04-15T06:02:05;5.80;99.90
19037;DHT22;9651;49.138;8.900;2023-04-15T06:06:07;6.20;99.90
19037;DHT22;9651;49.138;8.900;2023-04-15T06:10:10;6.50;99.90
19037;DHT22;9651;49.138;8.900;2023-04-15T06:14:11;6.70;99.90
19037;DHT22;9651;49.138;8.900;2023-04-15T06:18:15;7.00;99.90
19037;DHT22;9651;49.138;8.900;2023-04-15T06:22:16;7.20;99.90
19037;DHT22;9651;49.138;8.900;2023-04-15T06:26:18;7.50;99.90
19037;DHT22;9651;49.138;8.900;2023-04-15T06:30:20;7.60;99.90
19037;DHT22;9651;49.138;8.900;2023-04-15T06:34:23;7.90;99.90
19037;DHT22;9651;49.138;8.900;2023-04-15T06:38:25;8.40;99.90
19037;DHT22;9651;49.138;8.900;2023-04-15T06:42:27;8.80;99.90
19037;DHT22;9651;49.138;8.900;2023-04-15T06:46:29;9.30;99.90
19037;DHT22;9651;49.138;8.900;2023-04-15T06:50:32;9.70;99.90
19037;DHT22;9651;49.138;8.900;2023-04-15T06:54:35;10.20;99.90
19037;DHT22;9651;49.138;8.900;2023-04-15T06:58:37;10.50;99.90
19037;DHT22;9651;49.138;8.900;2023-04-15T07:02:39;11.10;99.90
19037;DHT22;9651;49.138;8.900;2023-04-15T07:06:42;11.70;99.90
19037;DHT22;9651;49.138;8.900;2023-04-15T07:10:44;12.30;99.90
19037;DHT22;9651;49.138;8.900;2023-04-15T07:14:46;12.90;99.90
19037;DHT22;9651;49.138;8.900;2023-04-15T07:18:49;13.30;99.90
19037;DHT22;9651;49.138;8.900;2023-04-15T07:22:52;13.70;99.90
19037;DHT22;9651;49.138;8.900;2023-04-15T07:26:54;13.60;99.90
19037;DHT22;9651;49.138;8.900;2023-04-15T07:30:57;13.50;99.90
19037;DHT22;9651;49.138;8.900;2023-04-15T07:34:59;12.70;99.90
19037;DHT22;9651;49.138;8.900;2023-04-15T07:39:03;12.20;99.90
19037;DHT22;9651;49.138;8.900;2023-04-15T07:43:05;12.10;99.90
19037;DHT22;9651;49.138;8.900;2023-04-15T07:47:07;11.90;99.90
19037;DHT22;9651;49.138;8.900;2023-04-15T07:51:09;11.60;99.90
19037;DHT22;9651;49.138;8.900;2023-04-15T07:55:13;11.70;99.90
19037;DHT22;9651;49.138;8.900;2023-04-15T07:59:18;12.30;99.90
19037;DHT22;9651;49.138;8.900;2023-04-15T08:03:21;13.00;99.90
19037;DHT22;9651;49.138;8.900;2023-04-15T08:07:23;14.40;99.90
19037;DHT22;9651;49.138;8.900;2023-04-15T08:11:26;15.60;99.90
19037;DHT22;9651;49.138;8.900;2023-04-15T08:15:28;15.50;99.90
19037;DHT22;9651;49.138;8.900;2023-04-15T08:19:32;15.80;99.90
19037;DHT22;9651;49.138;8.900;2023-04-15T08:23:34;16.60;99.90
19037;DHT22;9651;49.138;8.900;2023-04-15T08:27:37;17.60;99.90
19037;DHT22;9651;49.138;8.900;2023-04-15T08:31:39;18.50;99.90
19037;DHT22;9651;49.138;8.900;2023-04-15T08:35:41;19.00;99.90
19037;DHT22;9651;49.138;8.900;2023-04-15T08:39:43;18.90;99.90
19037;DHT22;9651;49.138;8.900;2023-04-15T08:43:51;19.40;99.90
19037;DHT22;9651;49.138;8.900;2023-04-15T08:47:55;19.60;99.90
19037;DHT22;9651;49.138;8.900;2023-04-15T08:51:58;19.30;99.90
19037;DHT22;9651;49.138;8.900;2023-04-15T08:56:04;20.10;99.90
19037;DHT22;9651;49.138;8.900;2023-04-15T09:00:09;21.30;99.90
19037;DHT22;9651;49.138;8.900;2023-04-15T09:04:12;22.10;99.90
19037;DHT22;9651;49.138;8.900;2023-04-15T09:08:14;23.10;99.90
19037;DHT22;9651;49.138;8.900;2023-04-15T09:12:16;23.90;99.70
19037;DHT22;9651;49.138;8.900;2023-04-15T09:16:19;24.30;97.50
19037;DHT22;9651;49.138;8.900;2023-04-15T09:20:22;24.00;94.60
19037;DHT22;9651;49.138;8.900;2023-04-15T09:24:25;21.70;96.70
19037;DHT22;9651;49.138;8.900;2023-04-15T09:28:27;22.10;97.10
19037;DHT22;9651;49.138;8.900;2023-04-15T09:32:31;22.20;95.20
19037;DHT22;9651;49.138;8.900;2023-04-15T09:36:50;21.80;94.60
19037;DHT22;9651;49.138;8.900;2023-04-15T09:40:53;21.50;94.30
19037;DHT22;9651;49.138;8.900;2023-04-15T09:44:54;21.00;94.10
19037;DHT22;9651;49.138;8.900;2023-04-15T09:49:08;20.70;95.10
19037;DHT22;9651;49.138;8.900;2023-04-15T09:53:10;20.60;94.80
19037;DHT22;9651;49.138;8.900;2023-04-15T09:57:12;20.70;94.00
19037;DHT22;9651;49.138;8.900;2023-04-15T10:01:15;21.20;93.80
19037;DHT22;9651;49.138;8.900;2023-04-15T10:05:18;22.20;92.70
19037;DHT22;9651;49.138;8.900;2023-04-15T10:09:20;22.70;91.50
19037;DHT22;9651;49.138;8.900;2023-04-15T10:13:24;22.20;90.80
19037;DHT22;9651;49.138;8.900;2023-04-15T10:17:27;22.50;91.20
19037;DHT22;9651;49.138;8.900;2023-04-15T10:21:30;22.70;90.10
19037;DHT22;9651;49.138;8.900;2023-04-15T10:25:33;22.50;90.10
19037;DHT22;9651;49.138;8.900;2023-04-15T10:29:35;22.90;87.90
19037;DHT22;9651;49.138;8.900;2023-04-15T10:33:39;23.60;86.50
19037;DHT22;9651;49.138;8.900;2023-04-15T10:37:43;23.80;84.00
19037;DHT22;9651;49.138;8.900;2023-04-15T10:41:44;23.70;81.80
19037;DHT22;9651;49.138;8.900;2023-04-15T10:45:47;24.10;82.30
19037;DHT22;9651;49.138;8.900;2023-04-15T10:49:51;24.50;79.80
19037;DHT22;9651;49.138;8.900;2023-04-15T10:53:57;24.60;79.70
19037;DHT22;9651;49.138;8.900;2023-04-15T10:58:01;25.10;78.40
19037;DHT22;9651;49.138;8.900;2023-04-15T11:02:04;25.40;76.40
19037;DHT22;9651;49.138;8.900;2023-04-15T11:06:06;26.50;75.10
19037;DHT22;9651;49.138;8.900;2023-04-15T11:14:50;27.20;70.70
19037;DHT22;9651;49.138;8.900;2023-04-15T11:18:53;26.30;70.00
19037;DHT22;9651;49.138;8.900;2023-04-15T11:22:55;25.20;70.60
19037;DHT22;9651;49.138;8.900;2023-04-15T11:26:57;24.00;71.90
19037;DHT22;9651;49.138;8.900;2023-04-15T11:31:07;23.10;77.80
19037;DHT22;9651;49.138;8.900;2023-04-15T11:35:10;22.30;77.40
19037;DHT22;9651;49.138;8.900;2023-04-15T11:39:12;21.70;74.20
19037;DHT22;9651;49.138;8.900;2023-04-15T11:43:16;20.80;71.70
19037;DHT22;9651;49.138;8.900;2023-04-15T11:47:24;19.70;72.80
19037;DHT22;9651;49.138;8.900;2023-04-15T11:51:31;18.90;77.20
19037;DHT22;9651;49.138;8.900;2023-04-15T11:55:41;18.30;79.80
19037;DHT22;9651;49.138;8.900;2023-04-15T11:59:43;18.00;83.00
19037;DHT22;9651;49.138;8.900;2023-04-15T12:03:47;17.70;79.70
19037;DHT22;9651;49.138;8.900;2023-04-15T12:07:58;17.60;77.60
19037;DHT22;9651;49.138;8.900;2023-04-15T12:12:00;17.60;76.70
19037;DHT22;9651;49.138;8.900;2023-04-15T12:16:02;17.70;75.40
19037;DHT22;9651;49.138;8.900;2023-04-15T12:20:06;17.80;74.30
19037;DHT22;9651;49.138;8.900;2023-04-15T12:24:09;18.10;75.60
19037;DHT22;9651;49.138;8.900;2023-04-15T12:28:12;18.20;73.60
19037;DHT22;9651;49.138;8.900;2023-04-15T12:32:14;18.30;72.80
19037;DHT22;9651;49.138;8.900;2023-04-15T12:36:18;18.20;73.00
19037;DHT22;9651;49.138;8.900;2023-04-15T12:40:20;18.00;72.30
19037;DHT22;9651;49.138;8.900;2023-04-15T12:44:22;17.70;70.90
19037;DHT22;9651;49.138;8.900;2023-04-15T12:48:24;17.40;72.90
19037;DHT22;9651;49.138;8.900;2023-04-15T12:52:27;17.40;72.90
19037;DHT22;9651;49.138;8.900;2023-04-15T12:56:29;17.30;73.40
19037;DHT22;9651;49.138;8.900;2023-04-15T13:00:33;17.10;72.80
19037;DHT22;9651;49.138;8.900;2023-04-15T13:04:35;16.90;71.40
19037;DHT22;9651;49.138;8.900;2023-04-15T13:08:38;16.80;71.30
19037;DHT22;9651;49.138;8.900;2023-04-15T13:12:41;16.60;72.10
19037;DHT22;9651;49.138;8.900;2023-04-15T13:16:42;16.50;74.50
19037;DHT22;9651;49.138;8.900;2023-04-15T13:20:45;16.30;75.40
19037;DHT22;9651;49.138;8.900;2023-04-15T13:24:48;16.00;75.90
19037;DHT22;9651;49.138;8.900;2023-04-15T13:28:51;15.80;76.90
19037;DHT22;9651;49.138;8.900;2023-04-15T13:32:53;15.50;77.90
19037;DHT22;9651;49.138;8.900;2023-04-15T13:36:55;15.30;78.90
19037;DHT22;9651;49.138;8.900;2023-04-15T13:40:58;15.10;80.10
19037;DHT22;9651;49.138;8.900;2023-04-15T13:45:00;15.00;80.30
19037;DHT22;9651;49.138;8.900;2023-04-15T13:49:03;14.90;81.30
19037;DHT22;9651;49.138;8.900;2023-04-15T13:53:05;14.70;82.30
19037;DHT22;9651;49.138;8.900;2023-04-15T13:57:08;14.80;82.80
19037;DHT22;9651;49.138;8.900;2023-04-15T14:01:10;14.70;83.20
19037;DHT22;9651;49.138;8.900;2023-04-15T14:05:12;14.80;84.00
19037;DHT22;9651;49.138;8.900;2023-04-15T14:09:14;14.80;85.50
19037;DHT22;9651;49.138;8.900;2023-04-15T14:13:17;14.70;84.70
19037;DHT22;9651;49.138;8.900;2023-04-15T14:17:19;14.40;84.00
19037;DHT22;9651;49.138;8.900;2023-04-15T14:21:21;14.40;85.00
19037;DHT22;9651;49.138;8.900;2023-04-15T14:25:23;14.40;86.00
19037;DHT22;9651;49.138;8.900;2023-04-15T14:29:27;14.30;86.50
19037;DHT22;9651;49.138;8.900;2023-04-15T14:33:28;14.20;88.30
19037;DHT22;9651;49.138;8.900;2023-04-15T14:37:31;14.20;87.90
19037;DHT22;9651;49.138;8.900;2023-04-15T14:41:33;14.20;88.00
19037;DHT22;9651;49.138;8.900;2023-04-15T14:45:36;14.20;88.20
19037;DHT22;9651;49.138;8.900;2023-04-15T14:49:38;14.40;86.80
19037;DHT22;9651;49.138;8.900;2023-04-15T14:53:40;14.70;88.30
19037;DHT22;9651;49.138;8.900;2023-04-15T14:57:43;14.80;87.90
19037;DHT22;9651;49.138;8.900;2023-04-15T15:01:46;14.90;88.30
19037;DHT22;9651;49.138;8.900;2023-04-15T15:05:48;14.90;90.10
19037;DHT22;9651;49.138;8.900;2023-04-15T15:09:50;14.60;90.40
19037;DHT22;9651;49.138;8.900;2023-04-15T15:13:52;14.40;90.80
19037;DHT22;9651;49.138;8.900;2023-04-15T15:17:55;14.20;91.30
19037;DHT22;9651;49.138;8.900;2023-04-15T15:21:57;14.10;92.10
19037;DHT22;9651;49.138;8.900;2023-04-15T15:25:59;14.00;92.70
19037;DHT22;9651;49.138;8.900;2023-04-15T15:30:01;13.90;93.60
19037;DHT22;9651;49.138;8.900;2023-04-15T15:34:04;13.80;95.30
19037;DHT22;9651;49.138;8.900;2023-04-15T15:38:06;13.70;96.40
19037;DHT22;9651;49.138;8.900;2023-04-15T15:42:08;13.60;98.00
19037;DHT22;9651;49.138;8.900;2023-04-15T15:46:10;13.40;99.50
19037;DHT22;9651;49.138;8.900;2023-04-15T15:50:14;13.30;99.90
19037;DHT22;9651;49.138;8.900;2023-04-15T15:54:16;13.20;99.90
19037;DHT22;9651;49.138;8.900;2023-04-15T15:58:18;13.10;99.90
19037;DHT22;9651;49.138;8.900;2023-04-15T16:02:20;13.00;99.90
19037;DHT22;9651;49.138;8.900;2023-04-15T16:06:23;12.90;99.90
19037;DHT22;9651;49.138;8.900;2023-04-15T16:10:26;12.80;99.90
19037;DHT22;9651;49.138;8.900;2023-04-15T16:14:28;12.70;99.90
19037;DHT22;9651;49.138;8.900;2023-04-15T16:18:30;12.60;99.90
19037;DHT22;9651;49.138;8.900;2023-04-15T16:22:34;12.50;99.90
19037;DHT22;9651;49.138;8.900;2023-04-15T16:26:36;12.50;99.90
19037;DHT22;9651;49.138;8.900;2023-04-15T16:30:39;12.40;99.90
19037;DHT22;9651;49.138;8.900;2023-04-15T16:34:40;12.30;99.90
19037;DHT22;9651;49.138;8.900;2023-04-15T16:38:44;12.20;99.90
19037;DHT22;9651;49.138;8.900;2023-04-15T16:42:48;12.10;99.90
19037;DHT22;9651;49.138;8.900;2023-04-15T16:46:50;12.00;99.90
19037;DHT22;9651;49.138;8.900;2023-04-15T16:50:52;12.00;99.90
19037;DHT22;9651;49.138;8.900;2023-04-15T16:54:55;12.00;99.90
19037;DHT22;9651;49.138;8.900;2023-04-15T16:58:57;12.00;99.90
19037;DHT22;9651;49.138;8.900;2023-04-15T17:02:59;12.00;99.90
19037;DHT22;9651;49.138;8.900;2023-04-15T17:07:01;11.90;99.90
19037;DHT22;9651;49.138;8.900;2023-04-15T17:11:05;11.90;99.90
19037;DHT22;9651;49.138;8.900;2023-04-15T17:15:07;11.70;99.90
19037;DHT22;9651;49.138;8.900;2023-04-15T17:19:10;11.50;99.90
19037;DHT22;9651;49.138;8.900;2023-04-15T17:23:11;11.40;99.90
19037;DHT22;9651;49.138;8.900;2023-04-15T17:27:15;11.20;99.90
19037;DHT22;9651;49.138;8.900;2023-04-15T17:31:16;11.10;99.90
19037;DHT22;9651;49.138;8.900;2023-04-15T17:35:19;11.20;99.90
19037;DHT22;9651;49.138;8.900;2023-04-15T17:39:22;11.20;99.90
19037;DHT22;9651;49.138;8.900;2023-04-15T17:43:25;11.10;99.90
19037;DHT22;9651;49.138;8.900;2023-04-15T17:47:28;11.10;99.90
19037;DHT22;9651;49.138;8.900;2023-04-15T17:51:30;11.10;99.90
19037;DHT22;9651;49.138;8.900;2023-04-15T17:55:40;10.90;99.90
19037;DHT22;9651;49.138;8.900;2023-04-15T17:59:43;10.80;99.90
19037;DHT22;9651;49.138;8.900;2023-04-15T18:03:47;10.80;99.90
19037;DHT22;9651;49.138;8.900;2023-04-15T18:07:50;10.70;99.90
19037;DHT22;9651;49.138;8.900;2023-04-15T18:11:51;10.60;99.90
19037;DHT22;9651;49.138;8.900;2023-04-15T18:15:55;10.50;99.90
19037;DHT22;9651;49.138;8.900;2023-04-15T18:19:57;10.30;99.90
19037;DHT22;9651;49.138;8.900;2023-04-15T18:23:59;10.20;99.90
19037;DHT22;9651;49.138;8.900;2023-04-15T18:28:01;10.10;99.90
19037;DHT22;9651;49.138;8.900;2023-04-15T18:32:04;10.10;99.90
19037;DHT22;9651;49.138;8.900;2023-04-15T18:36:06;10.10;99.90
19037;DHT22;9651;49.138;8.900;2023-04-15T18:40:09;10.10;99.90
19037;DHT22;9651;49.138;8.900;2023-04-15T18:44:11;10.00;99.90
19037;DHT22;9651;49.138;8.900;2023-04-15T18:48:14;10.00;99.90
19037;DHT22;9651;49.138;8.900;2023-04-15T18:52:17;10.00;99.90
19037;DHT22;9651;49.138;8.900;2023-04-15T18:56:18;10.00;99.90
19037;DHT22;9651;49.138;8.900;2023-04-15T19:00:38;9.90;99.90
19037;DHT22;9651;49.138;8.900;2023-04-15T19:04:42;9.80;99.90
19037;DHT22;9651;49.138;8.900;2023-04-15T19:08:44;9.80;99.90
19037;DHT22;9651;49.138;8.900;2023-04-15T19:12:46;9.80;99.90
19037;DHT22;9651;49.138;8.900;2023-04-15T19:16:48;9.80;99.90
19037;DHT22;9651;49.138;8.900;2023-04-15T19:20:52;9.70;99.90
19037;DHT22;9651;49.138;8.900;2023-04-15T19:24:55;9.60;99.90
19037;DHT22;9651;49.138;8.900;2023-04-15T19:28:57;9.60;99.90
19037;DHT22;9651;49.138;8.900;2023-04-15T19:32:59;9.60;99.90
19037;DHT22;9651;49.138;8.900;2023-04-15T19:37:02;9.60;99.90
19037;DHT22;9651;49.138;8.900;2023-04-15T19:41:04;9.60;99.90
19037;DHT22;9651;49.138;8.900;2023-04-15T19:45:07;9.60;99.90
19037;DHT22;9651;49.138;8.900;2023-04-15T19:49:09;9.50;99.90
19037;DHT22;9651;49.138;8.900;2023-04-15T19:53:12;9.50;99.90
19037;DHT22;9651;49.138;8.900;2023-04-15T19:57:14;9.50;99.90
19037;DHT22;9651;49.138;8.900;2023-04-15T20:01:16;9.40;99.90
19037;DHT22;9651;49.138;8.900;2023-04-15T20:05:18;9.40;99.90
19037;DHT22;9651;49.138;8.900;2023-04-15T20:09:21;9.40;99.90
19037;DHT22;9651;49.138;8.900;2023-04-15T20:13:23;9.40;99.90
19037;DHT22;9651;49.138;8.900;2023-04-15T20:17:25;9.40;99.90
19037;DHT22;9651;49.138;8.900;2023-04-15T20:21:27;9.40;99.90
19037;DHT22;9651;49.138;8.900;2023-04-15T20:25:30;9.40;99.90
19037;DHT22;9651;49.138;8.900;2023-04-15T20:29:32;9.30;99.90
19037;DHT22;9651;49.138;8.900;2023-04-15T20:33:34;9.30;99.90
19037;DHT22;9651;49.138;8.900;2023-04-15T20:37:36;9.40;99.90
19037;DHT22;9651;49.138;8.900;2023-04-15T20:41:41;9.30;99.90
19037;DHT22;9651;49.138;8.900;2023-04-15T20:45:43;9.30;99.90
19037;DHT22;9651;49.138;8.900;2023-04-15T20:49:45;9.30;99.90
19037;DHT22;9651;49.138;8.900;2023-04-15T20:53:47;9.30;99.90
19037;DHT22;9651;49.138;8.900;2023-04-15T20:57:50;9.30;99.90
19037;DHT22;9651;49.138;8.900;2023-04-15T21:01:52;9.30;99.90
19037;DHT22;9651;49.138;8.900;2023-04-15T21:05:56;9.30;99.90
19037;DHT22;9651;49.138;8.900;2023-04-15T21:09:58;9.30;99.90
19037;DHT22;9651;49.138;8.900;2023-04-15T21:14:01;9.20;99.90
19037;DHT22;9651;49.138;8.900;2023-04-15T21:18:03;9.30;99.90
19037;DHT22;9651;49.138;8.900;2023-04-15T21:22:05;9.30;99.90
19037;DHT22;9651;49.138;8.900;2023-04-15T21:26:07;9.30;99.90
19037;DHT22;9651;49.138;8.900;2023-04-15T21:30:11;9.30;99.90
19037;DHT22;9651;49.138;8.900;2023-04-15T21:34:14;9.30;99.90
19037;DHT22;9651;49.138;8.900;2023-04-15T21:38:16;9.30;99.90
19037;DHT22;9651;49.138;8.900;2023-04-15T21:42:18;9.30;99.90
19037;DHT22;9651;49.138;8.900;2023-04-15T21:46:21;9.20;99.90
19037;DHT22;9651;49.138;8.900;2023-04-15T21:50:23;9.20;99.90
19037;DHT22;9651;49.138;8.900;2023-04-15T21:54:25;9.20;99.90
19037;DHT22;9651;49.138;8.900;2023-04-15T21:58:27;9.20;99.90
19037;DHT22;9651;49.138;8.900;2023-04-15T22:02:31;9.20;99.90
19037;DHT22;9651;49.138;8.900;2023-04-15T22:06:33;9.20;99.90
19037;DHT22;9651;49.138;8.900;2023-04-15T22:10:36;9.20;99.90
19037;DHT22;9651;49.138;8.900;2023-04-15T22:14:38;9.20;99.90
19037;DHT22;9651;49.138;8.900;2023-04-15T22:18:41;9.20;99.90
19037;DHT22;9651;49.138;8.900;2023-04-15T22:22:44;9.20;99.90
19037;DHT22;9651;49.138;8.900;2023-04-15T22:26:45;9.20;99.90
19037;DHT22;9651;49.138;8.900;2023-04-15T22:30:47;9.20;99.90
19037;DHT22;9651;49.138;8.900;2023-04-15T22:34:50;9.10;99.90
19037;DHT22;9651;49.138;8.900;2023-04-15T22:38:52;9.10;99.90
19037;DHT22;9651;49.138;8.900;2023-04-15T22:42:54;9.10;99.90
19037;DHT22;9651;49.138;8.900;2023-04-15T22:46:56;9.10;99.90
19037;DHT22;9651;49.138;8.900;2023-04-15T22:50:59;9.10;99.90
19037;DHT22;9651;49.138;8.900;2023-04-15T22:55:02;9.10;99.90
19037;DHT22;9651;49.138;8.900;2023-04-15T22:59:04;9.10;99.90
19037;DHT22;9651;49.138;8.900;2023-04-15T23:03:06;9.10;99.90
19037;DHT22;9651;49.138;8.900;2023-04-15T23:07:09;9.10;99.90
19037;DHT22;9651;49.138;8.900;2023-04-15T23:11:12;9.10;99.90
19037;DHT22;9651;49.138;8.900;2023-04-15T23:15:14;9.00;99.90
19037;DHT22;9651;49.138;8.900;2023-04-15T23:19:16;9.10;99.90
19037;DHT22;9651;49.138;8.900;2023-04-15T23:23:20;9.00;99.90
19037;DHT22;9651;49.138;8.900;2023-04-15T23:27:22;9.00;99.90
19037;DHT22;9651;49.138;8.900;2023-04-15T23:31:24;9.10;99.90
19037;DHT22;9651;49.138;8.900;2023-04-15T23:35:27;9.10;99.90
19037;DHT22;9651;49.138;8.900;2023-04-15T23:39:30;9.10;99.90
19037;DHT22;9651;49.138;8.900;2023-04-15T23:43:32;9.10;99.90
19037;DHT22;9651;49.138;8.900;2023-04-15T23:47:34;9.00;99.90
19037;DHT22;9651;49.138;8.900;2023-04-15T23:51:36;9.00;99.90
19037;DHT22;9651;49.138;8.900;2023-04-15T23:55:39;9.00;99.90
19037;DHT22;9651;49.138;8.900;2023-04-15T23:59:41;9.10;99.90
